<?xml version="1.0" encoding="utf-8"?>
<gpx xmlns:xsi="http://www.w3.org/2001/XMLSchema-instance" xmlns:xsd="http://www.w3.org/2001/XMLSchema" version="1.1" creator="Shapelink.com" xmlns="http://www.topografix.com/GPX/1/1" xmlns:gpxtpx="http://www.garmin.com/xmlschemas/TrackPointExtension/v1">
  <metadata>
    <name>Gåing 0.96 km, 2012-04-04</name>
    <desc></desc>
    <author><name>Mikael Blom</name></author> 
    <time>2012-04-04T17:09:17Z</time>
  </metadata>
  <trk>
    <name>Gåing 0.96 km, 2012-04-04</name>
    <trkseg>
      <trkpt lat="59.9554187" lon="17.7148699">
        <ele>61.181</ele>
        <time>2012-04-04T17:09:17Z</time>
      </trkpt>
      <trkpt lat="59.9554802" lon="17.7148431">
        <ele>58.7777</ele>
        <time>2012-04-04T17:09:22Z</time>
      </trkpt>
      <trkpt lat="59.9555729" lon="17.7148307">
        <ele>56.3745</ele>
        <time>2012-04-04T17:09:29Z</time>
      </trkpt>
      <trkpt lat="59.9556684" lon="17.7148141">
        <ele>52.5292</ele>
        <time>2012-04-04T17:09:37Z</time>
      </trkpt>
      <trkpt lat="59.9557254" lon="17.7149073">
        <ele>49.1646</ele>
        <time>2012-04-04T17:09:44Z</time>
      </trkpt>
      <trkpt lat="59.9557472" lon="17.7149674">
        <ele>48.684</ele>
        <time>2012-04-04T17:09:47Z</time>
      </trkpt>
      <trkpt lat="59.9557878" lon="17.715061">
        <ele>46.7612</ele>
        <time>2012-04-04T17:09:53Z</time>
      </trkpt>
      <trkpt lat="59.9558267" lon="17.7151508">
        <ele>46.2806</ele>
        <time>2012-04-04T17:09:58Z</time>
      </trkpt>
      <trkpt lat="59.9558888" lon="17.7152776">
        <ele>46.7612</ele>
        <time>2012-04-04T17:10:05Z</time>
      </trkpt>
      <trkpt lat="59.955923" lon="17.7153583">
        <ele>47.2418</ele>
        <time>2012-04-04T17:10:09Z</time>
      </trkpt>
      <trkpt lat="59.9559425" lon="17.7154466">
        <ele>46.7612</ele>
        <time>2012-04-04T17:10:12Z</time>
      </trkpt>
      <trkpt lat="59.9560069" lon="17.7156373">
        <ele>46.2806</ele>
        <time>2012-04-04T17:10:19Z</time>
      </trkpt>
      <trkpt lat="59.9560186" lon="17.7156611">
        <ele>46.2806</ele>
        <time>2012-04-04T17:10:20Z</time>
      </trkpt>
      <trkpt lat="59.9561343" lon="17.7158966">
        <ele>50.6066</ele>
        <time>2012-04-04T17:10:29Z</time>
      </trkpt>
      <trkpt lat="59.9561695" lon="17.7159908">
        <ele>50.126</ele>
        <time>2012-04-04T17:10:33Z</time>
      </trkpt>
      <trkpt lat="59.9562409" lon="17.7162099">
        <ele>50.126</ele>
        <time>2012-04-04T17:10:42Z</time>
      </trkpt>
      <trkpt lat="59.9562663" lon="17.7163102">
        <ele>48.684</ele>
        <time>2012-04-04T17:10:46Z</time>
      </trkpt>
      <trkpt lat="59.9563156" lon="17.716394">
        <ele>51.5679</ele>
        <time>2012-04-04T17:10:52Z</time>
      </trkpt>
      <trkpt lat="59.9563281" lon="17.7163841">
        <ele>53.4905</ele>
        <time>2012-04-04T17:10:55Z</time>
      </trkpt>
      <trkpt lat="59.956344" lon="17.7163687">
        <ele>56.8551</ele>
        <time>2012-04-04T17:10:58Z</time>
      </trkpt>
      <trkpt lat="59.9563113" lon="17.7163048">
        <ele>57.3358</ele>
        <time>2012-04-04T17:11:02Z</time>
      </trkpt>
      <trkpt lat="59.9563036" lon="17.7162822">
        <ele>57.3358</ele>
        <time>2012-04-04T17:11:03Z</time>
      </trkpt>
      <trkpt lat="59.9562457" lon="17.7161579">
        <ele>53.4905</ele>
        <time>2012-04-04T17:11:07Z</time>
      </trkpt>
      <trkpt lat="59.9562054" lon="17.7160958">
        <ele>52.0486</ele>
        <time>2012-04-04T17:11:10Z</time>
      </trkpt>
      <trkpt lat="59.9561747" lon="17.7159962">
        <ele>49.1646</ele>
        <time>2012-04-04T17:11:15Z</time>
      </trkpt>
      <trkpt lat="59.9561017" lon="17.7158935">
        <ele>46.2806</ele>
        <time>2012-04-04T17:11:21Z</time>
      </trkpt>
      <trkpt lat="59.9560605" lon="17.7157796">
        <ele>45.3192</ele>
        <time>2012-04-04T17:11:26Z</time>
      </trkpt>
      <trkpt lat="59.9560182" lon="17.7156994">
        <ele>44.358</ele>
        <time>2012-04-04T17:11:29Z</time>
      </trkpt>
      <trkpt lat="59.9559362" lon="17.7155387">
        <ele>42.916</ele>
        <time>2012-04-04T17:11:35Z</time>
      </trkpt>
      <trkpt lat="59.955878" lon="17.7154455">
        <ele>42.4354</ele>
        <time>2012-04-04T17:11:39Z</time>
      </trkpt>
      <trkpt lat="59.9558174" lon="17.7153495">
        <ele>40.5128</ele>
        <time>2012-04-04T17:11:44Z</time>
      </trkpt>
      <trkpt lat="59.9557639" lon="17.7152067">
        <ele>38.5901</ele>
        <time>2012-04-04T17:11:50Z</time>
      </trkpt>
      <trkpt lat="59.9557464" lon="17.7151731">
        <ele>38.1094</ele>
        <time>2012-04-04T17:11:52Z</time>
      </trkpt>
      <trkpt lat="59.9557241" lon="17.7150876">
        <ele>39.0707</ele>
        <time>2012-04-04T17:11:56Z</time>
      </trkpt>
      <trkpt lat="59.9556853" lon="17.7150292">
        <ele>40.0321</ele>
        <time>2012-04-04T17:11:59Z</time>
      </trkpt>
      <trkpt lat="59.955628" lon="17.7149139">
        <ele>38.5901</ele>
        <time>2012-04-04T17:12:04Z</time>
      </trkpt>
      <trkpt lat="59.955599" lon="17.7148094">
        <ele>39.5513</ele>
        <time>2012-04-04T17:12:07Z</time>
      </trkpt>
      <trkpt lat="59.9555712" lon="17.7147017">
        <ele>38.5901</ele>
        <time>2012-04-04T17:12:11Z</time>
      </trkpt>
      <trkpt lat="59.9555361" lon="17.7145902">
        <ele>37.6287</ele>
        <time>2012-04-04T17:12:15Z</time>
      </trkpt>
      <trkpt lat="59.9555039" lon="17.7144337">
        <ele>36.6675</ele>
        <time>2012-04-04T17:12:20Z</time>
      </trkpt>
      <trkpt lat="59.955492" lon="17.714293">
        <ele>36.6675</ele>
        <time>2012-04-04T17:12:24Z</time>
      </trkpt>
      <trkpt lat="59.9554717" lon="17.7141158">
        <ele>37.6287</ele>
        <time>2012-04-04T17:12:29Z</time>
      </trkpt>
      <trkpt lat="59.9554495" lon="17.7139558">
        <ele>39.0707</ele>
        <time>2012-04-04T17:12:35Z</time>
      </trkpt>
      <trkpt lat="59.955438" lon="17.7139105">
        <ele>39.0707</ele>
        <time>2012-04-04T17:12:37Z</time>
      </trkpt>
      <trkpt lat="59.9553941" lon="17.7137402">
        <ele>40.5128</ele>
        <time>2012-04-04T17:12:43Z</time>
      </trkpt>
      <trkpt lat="59.955351" lon="17.7136247">
        <ele>40.5128</ele>
        <time>2012-04-04T17:12:49Z</time>
      </trkpt>
      <trkpt lat="59.9552885" lon="17.7135952">
        <ele>40.5128</ele>
        <time>2012-04-04T17:12:53Z</time>
      </trkpt>
      <trkpt lat="59.9552039" lon="17.7135715">
        <ele>41.9547</ele>
        <time>2012-04-04T17:12:59Z</time>
      </trkpt>
      <trkpt lat="59.9550905" lon="17.713548">
        <ele>42.4354</ele>
        <time>2012-04-04T17:13:06Z</time>
      </trkpt>
      <trkpt lat="59.9549969" lon="17.7135256">
        <ele>41.9547</ele>
        <time>2012-04-04T17:13:12Z</time>
      </trkpt>
      <trkpt lat="59.9548929" lon="17.7134704">
        <ele>41.474</ele>
        <time>2012-04-04T17:13:19Z</time>
      </trkpt>
      <trkpt lat="59.9547848" lon="17.7134108">
        <ele>42.4354</ele>
        <time>2012-04-04T17:13:26Z</time>
      </trkpt>
      <trkpt lat="59.9547059" lon="17.7133149">
        <ele>42.916</ele>
        <time>2012-04-04T17:13:32Z</time>
      </trkpt>
      <trkpt lat="59.9546238" lon="17.7131832">
        <ele>40.9934</ele>
        <time>2012-04-04T17:13:39Z</time>
      </trkpt>
      <trkpt lat="59.9545744" lon="17.7130781">
        <ele>40.5128</ele>
        <time>2012-04-04T17:13:44Z</time>
      </trkpt>
      <trkpt lat="59.9544741" lon="17.7129496">
        <ele>40.0321</ele>
        <time>2012-04-04T17:13:52Z</time>
      </trkpt>
      <trkpt lat="59.9544408" lon="17.7129395">
        <ele>39.5513</ele>
        <time>2012-04-04T17:13:54Z</time>
      </trkpt>
      <trkpt lat="59.954357" lon="17.7129375">
        <ele>39.0707</ele>
        <time>2012-04-04T17:13:59Z</time>
      </trkpt>
      <trkpt lat="59.9542369" lon="17.71294">
        <ele>37.1481</ele>
        <time>2012-04-04T17:14:06Z</time>
      </trkpt>
      <trkpt lat="59.9541104" lon="17.7129467">
        <ele>35.7061</ele>
        <time>2012-04-04T17:14:14Z</time>
      </trkpt>
      <trkpt lat="59.9540338" lon="17.7129387">
        <ele>36.6675</ele>
        <time>2012-04-04T17:14:20Z</time>
      </trkpt>
      <trkpt lat="59.9539249" lon="17.7129052">
        <ele>36.6675</ele>
        <time>2012-04-04T17:14:28Z</time>
      </trkpt>
      <trkpt lat="59.95384" lon="17.7128959">
        <ele>37.6287</ele>
        <time>2012-04-04T17:14:34Z</time>
      </trkpt>
      <trkpt lat="59.9537639" lon="17.7129332">
        <ele>38.5901</ele>
        <time>2012-04-04T17:14:40Z</time>
      </trkpt>
      <trkpt lat="59.9536707" lon="17.7129836">
        <ele>38.5901</ele>
        <time>2012-04-04T17:14:47Z</time>
      </trkpt>
      <trkpt lat="59.953652" lon="17.7129954">
        <ele>38.5901</ele>
        <time>2012-04-04T17:14:49Z</time>
      </trkpt>
      <trkpt lat="59.9536177" lon="17.7129539">
        <ele>40.0321</ele>
        <time>2012-04-04T17:14:53Z</time>
      </trkpt>
      <trkpt lat="59.9535756" lon="17.7128333">
        <ele>39.5513</ele>
        <time>2012-04-04T17:14:58Z</time>
      </trkpt>
      <trkpt lat="59.9535236" lon="17.7126716">
        <ele>39.5513</ele>
        <time>2012-04-04T17:15:04Z</time>
      </trkpt>
      <trkpt lat="59.9534723" lon="17.712529">
        <ele>40.0321</ele>
        <time>2012-04-04T17:15:09Z</time>
      </trkpt>
      <trkpt lat="59.9534262" lon="17.7124276">
        <ele>40.5128</ele>
        <time>2012-04-04T17:15:12Z</time>
      </trkpt>
      <trkpt lat="59.9533816" lon="17.7123143">
        <ele>40.9934</ele>
        <time>2012-04-04T17:15:17Z</time>
      </trkpt>
      <trkpt lat="59.9533329" lon="17.7121237">
        <ele>40.5128</ele>
        <time>2012-04-04T17:15:24Z</time>
      </trkpt>
      <trkpt lat="59.9532982" lon="17.712006">
        <ele>39.0707</ele>
        <time>2012-04-04T17:15:29Z</time>
      </trkpt>
      <trkpt lat="59.953249" lon="17.7118836">
        <ele>39.5513</ele>
        <time>2012-04-04T17:15:34Z</time>
      </trkpt>
      <trkpt lat="59.9531832" lon="17.7117112">
        <ele>40.5128</ele>
        <time>2012-04-04T17:15:41Z</time>
      </trkpt>
      <trkpt lat="59.9531273" lon="17.7116076">
        <ele>40.0321</ele>
        <time>2012-04-04T17:15:46Z</time>
      </trkpt>
      <trkpt lat="59.9530546" lon="17.7114337">
        <ele>40.9934</ele>
        <time>2012-04-04T17:15:53Z</time>
      </trkpt>
      <trkpt lat="59.953003" lon="17.7113042">
        <ele>41.474</ele>
        <time>2012-04-04T17:15:58Z</time>
      </trkpt>
      <trkpt lat="59.9529548" lon="17.7112039">
        <ele>41.9547</ele>
        <time>2012-04-04T17:16:01Z</time>
      </trkpt>
      <trkpt lat="59.95289" lon="17.7110557">
        <ele>41.474</ele>
        <time>2012-04-04T17:16:05Z</time>
      </trkpt>
      <trkpt lat="59.9528657" lon="17.7109307">
        <ele>39.5513</ele>
        <time>2012-04-04T17:16:09Z</time>
      </trkpt>
      <trkpt lat="59.95285" lon="17.7108673">
        <ele>38.1094</ele>
        <time>2012-04-04T17:16:12Z</time>
      </trkpt>
      <trkpt lat="59.9528396" lon="17.710762">
        <ele>36.1868</ele>
        <time>2012-04-04T17:16:17Z</time>
      </trkpt>
      <trkpt lat="59.9528192" lon="17.7106757">
        <ele>34.7449</ele>
        <time>2012-04-04T17:16:21Z</time>
      </trkpt>
      <trkpt lat="59.9527956" lon="17.710597">
        <ele>34.2642</ele>
        <time>2012-04-04T17:16:25Z</time>
      </trkpt>
      <trkpt lat="59.9526989" lon="17.7104424">
        <ele>37.1481</ele>
        <time>2012-04-04T17:16:34Z</time>
      </trkpt>
      <trkpt lat="59.9526555" lon="17.710354">
        <ele>39.0707</ele>
        <time>2012-04-04T17:16:39Z</time>
      </trkpt>
      <trkpt lat="59.9526396" lon="17.7103116">
        <ele>39.0707</ele>
        <time>2012-04-04T17:16:41Z</time>
      </trkpt>
      <trkpt lat="59.9525552" lon="17.7101676">
        <ele>40.0321</ele>
        <time>2012-04-04T17:16:48Z</time>
      </trkpt>
      <trkpt lat="59.9524589" lon="17.7100856">
        <ele>40.0321</ele>
        <time>2012-04-04T17:16:53Z</time>
      </trkpt>
      <trkpt lat="59.9523761" lon="17.7100406">
        <ele>39.5513</ele>
        <time>2012-04-04T17:16:58Z</time>
      </trkpt>
      <trkpt lat="59.9522911" lon="17.7099633">
        <ele>39.5513</ele>
        <time>2012-04-04T17:17:03Z</time>
      </trkpt>
      <trkpt lat="59.9522186" lon="17.7099159">
        <ele>40.0321</ele>
        <time>2012-04-04T17:17:08Z</time>
      </trkpt>
      <trkpt lat="59.9521244" lon="17.7098852">
        <ele>39.5513</ele>
        <time>2012-04-04T17:17:14Z</time>
      </trkpt>
      <trkpt lat="59.9520217" lon="17.70985">
        <ele>39.0707</ele>
        <time>2012-04-04T17:17:20Z</time>
      </trkpt>
      <trkpt lat="59.9519349" lon="17.7098097">
        <ele>38.5901</ele>
        <time>2012-04-04T17:17:26Z</time>
      </trkpt>
      <trkpt lat="59.9518481" lon="17.7097578">
        <ele>39.5513</ele>
        <time>2012-04-04T17:17:33Z</time>
      </trkpt>
      <trkpt lat="59.9518268" lon="17.7097506">
        <ele>39.0707</ele>
        <time>2012-04-04T17:17:35Z</time>
      </trkpt>
      <trkpt lat="59.9517916" lon="17.7097651">
        <ele>40.0321</ele>
        <time>2012-04-04T17:17:41Z</time>
      </trkpt>
      <trkpt lat="59.9517736" lon="17.7098074">
        <ele>40.9934</ele>
        <time>2012-04-04T17:17:45Z</time>
      </trkpt>
      <trkpt lat="59.9517318" lon="17.7098623">
        <ele>42.4354</ele>
        <time>2012-04-04T17:17:50Z</time>
      </trkpt>
      <trkpt lat="59.9516964" lon="17.7098933">
        <ele>41.9547</ele>
        <time>2012-04-04T17:17:53Z</time>
      </trkpt>
      <trkpt lat="59.9516617" lon="17.709967">
        <ele>42.916</ele>
        <time>2012-04-04T17:17:57Z</time>
      </trkpt>
      <trkpt lat="59.9515976" lon="17.7100443">
        <ele>41.9547</ele>
        <time>2012-04-04T17:18:03Z</time>
      </trkpt>
      <trkpt lat="59.9515399" lon="17.7100448">
        <ele>41.9547</ele>
        <time>2012-04-04T17:18:06Z</time>
      </trkpt>
      <trkpt lat="59.9515022" lon="17.7100596">
        <ele>40.0321</ele>
        <time>2012-04-04T17:18:09Z</time>
      </trkpt>
      <trkpt lat="59.9514639" lon="17.7100628">
        <ele>40.0321</ele>
        <time>2012-04-04T17:18:12Z</time>
      </trkpt>
      <trkpt lat="59.951362" lon="17.7100593">
        <ele>39.5513</ele>
        <time>2012-04-04T17:18:18Z</time>
      </trkpt>
      <trkpt lat="59.9512775" lon="17.7100762">
        <ele>38.5901</ele>
        <time>2012-04-04T17:18:23Z</time>
      </trkpt>
      <trkpt lat="59.9512576" lon="17.7100812">
        <ele>38.1094</ele>
        <time>2012-04-04T17:18:24Z</time>
      </trkpt>
      <trkpt lat="59.9511604" lon="17.7100893">
        <ele>38.1094</ele>
        <time>2012-04-04T17:18:30Z</time>
      </trkpt>
      <trkpt lat="59.9511263" lon="17.7100755">
        <ele>38.5901</ele>
        <time>2012-04-04T17:18:32Z</time>
      </trkpt>
      <trkpt lat="59.951034" lon="17.7100682">
        <ele>38.5901</ele>
        <time>2012-04-04T17:18:37Z</time>
      </trkpt>
      <trkpt lat="59.9509169" lon="17.7100431">
        <ele>38.1094</ele>
        <time>2012-04-04T17:18:44Z</time>
      </trkpt>
      <trkpt lat="59.9508853" lon="17.7100387">
        <ele>38.1094</ele>
        <time>2012-04-04T17:18:46Z</time>
      </trkpt>
      <trkpt lat="59.9508082" lon="17.7100123">
        <ele>39.0707</ele>
        <time>2012-04-04T17:18:51Z</time>
      </trkpt>
      <trkpt lat="59.9507288" lon="17.709984">
        <ele>40.5128</ele>
        <time>2012-04-04T17:18:57Z</time>
      </trkpt>
      <trkpt lat="59.9507056" lon="17.7099811">
        <ele>40.9934</ele>
        <time>2012-04-04T17:18:59Z</time>
      </trkpt>
      <trkpt lat="59.9506561" lon="17.7099465">
        <ele>42.4354</ele>
        <time>2012-04-04T17:19:04Z</time>
      </trkpt>
    </trkseg>
  </trk>
</gpx>